createdAt,value
2024-05-09T00:00:51.749Z,4.10
2024-05-09T00:01:51.775Z,4.10
2024-05-09T00:02:51.698Z,4.20
2024-05-09T00:03:51.755Z,4.30
2024-05-09T00:04:51.701Z,4.10
2024-05-09T00:05:51.952Z,3.80
2024-05-09T00:06:51.659Z,3.60
2024-05-09T00:07:51.752Z,4.10
2024-05-09T00:08:51.625Z,4.10
2024-05-09T00:09:51.595Z,3.90
2024-05-09T00:10:51.703Z,4.40
2024-05-09T00:11:51.821Z,4.00
2024-05-09T00:12:51.634Z,3.90
2024-05-09T00:13:51.602Z,3.80
2024-05-09T00:14:51.578Z,3.90
2024-05-09T00:15:51.530Z,3.80
2024-05-09T00:16:51.524Z,3.90
2024-05-09T00:17:51.904Z,4.50
2024-05-09T00:18:51.564Z,3.90
2024-05-09T00:19:51.519Z,3.90
2024-05-09T00:20:51.584Z,4.10
2024-05-09T00:21:51.556Z,3.60
2024-05-09T00:22:51.519Z,3.50
2024-05-09T00:23:51.441Z,3.70
2024-05-09T00:24:51.471Z,3.90
2024-05-09T00:25:51.476Z,3.60
2024-05-09T00:26:51.418Z,4.00
2024-05-09T00:27:51.401Z,3.80
2024-05-09T00:28:51.429Z,3.50
2024-05-09T00:29:51.405Z,3.90
2024-05-09T00:30:51.390Z,3.50
2024-05-09T00:31:51.485Z,3.00
2024-05-09T00:32:51.754Z,3.30
2024-05-09T00:33:51.537Z,3.10
2024-05-09T00:34:51.346Z,3.40
2024-05-09T00:35:51.308Z,3.50
2024-05-09T00:36:51.328Z,3.50
2024-05-09T00:37:51.343Z,3.50
2024-05-09T00:38:51.272Z,3.30
2024-05-09T00:39:51.275Z,3.50
2024-05-09T00:40:51.291Z,3.40
2024-05-09T00:41:51.268Z,3.50
2024-05-09T00:42:51.235Z,3.10
2024-05-09T00:43:51.339Z,3.50
2024-05-09T00:44:51.232Z,3.10
2024-05-09T00:45:51.281Z,3.20
2024-05-09T00:46:51.252Z,3.30
2024-05-09T00:47:51.741Z,3.10
2024-05-09T00:48:51.306Z,3.20
2024-05-09T00:49:51.237Z,3.20
2024-05-09T00:50:53.976Z,3.10
2024-05-09T00:51:51.207Z,3.10
2024-05-09T00:52:51.213Z,3.30
2024-05-09T00:53:51.103Z,2.90
2024-05-09T00:54:51.092Z,3.00
2024-05-09T00:55:51.112Z,3.20
2024-05-09T00:56:51.086Z,3.40
2024-05-09T00:57:51.092Z,3.20
2024-05-09T00:58:51.126Z,3.10
2024-05-09T00:59:51.066Z,3.40
2024-05-09T01:00:51.225Z,2.80
2024-05-09T01:01:51.147Z,3.20
2024-05-09T01:02:51.206Z,3.40
2024-05-09T01:03:51.441Z,3.60
2024-05-09T01:04:51.085Z,3.30
2024-05-09T01:05:51.316Z,3.30
2024-05-09T01:06:51.016Z,3.20
2024-05-09T01:07:51.024Z,3.20
2024-05-09T01:08:50.947Z,3.30
2024-05-09T01:09:50.927Z,3.10
2024-05-09T01:10:51.067Z,3.10
2024-05-09T01:11:51.139Z,3.30
2024-05-09T01:12:50.930Z,3.10
2024-05-09T01:13:51.027Z,3.20
2024-05-09T01:14:50.919Z,3.20
2024-05-09T01:15:50.898Z,2.80
2024-05-09T01:16:50.990Z,3.20
2024-05-09T01:17:51.112Z,3.20
2024-05-09T01:18:50.987Z,3.00
2024-05-09T01:19:50.933Z,2.90
2024-05-09T01:20:50.924Z,2.80
2024-05-09T01:21:50.804Z,3.20
2024-05-09T01:22:50.877Z,3.10
2024-05-09T01:23:50.806Z,3.00
2024-05-09T01:24:50.773Z,3.30
2024-05-09T01:25:50.797Z,2.90
2024-05-09T01:26:50.743Z,3.00
2024-05-09T01:27:50.763Z,3.20
2024-05-09T01:28:50.843Z,3.20
2024-05-09T01:29:50.709Z,3.20
2024-05-09T01:30:50.701Z,2.90
2024-05-09T01:31:50.776Z,3.00
2024-05-09T01:32:50.985Z,3.00
2024-05-09T01:33:50.757Z,3.10
2024-05-09T01:34:50.702Z,3.20
2024-05-09T01:35:50.649Z,3.20
2024-05-09T01:36:50.632Z,2.80
2024-05-09T01:37:50.676Z,2.90
2024-05-09T01:38:50.607Z,3.20
2024-05-09T01:39:50.644Z,3.10
2024-05-09T01:40:50.660Z,3.10
2024-05-09T01:41:50.592Z,3.10
2024-05-09T01:42:50.593Z,2.80
2024-05-09T01:43:50.548Z,3.20
2024-05-09T01:44:50.546Z,3.10
2024-05-09T01:45:50.522Z,2.90
2024-05-09T01:46:50.556Z,2.80
2024-05-09T01:47:50.864Z,3.10
2024-05-09T01:48:50.616Z,3.10
2024-05-09T01:49:50.528Z,2.90
2024-05-09T01:50:50.541Z,3.20
2024-05-09T01:51:50.471Z,3.20
2024-05-09T01:52:50.459Z,3.10
2024-05-09T01:53:50.576Z,3.20
2024-05-09T01:54:50.450Z,2.90
2024-05-09T01:55:50.502Z,3.20
2024-05-09T01:56:50.403Z,2.70
2024-05-09T01:57:50.427Z,3.20
2024-05-09T01:58:50.402Z,3.10
2024-05-09T01:59:50.490Z,3.10
2024-05-09T02:00:50.443Z,3.10
2024-05-09T02:01:56.736Z,3.20
2024-05-09T02:02:51.649Z,2.90
2024-05-09T02:03:50.791Z,3.20
2024-05-09T02:04:50.466Z,3.20
2024-05-09T02:05:50.594Z,3.00
2024-05-09T02:06:50.334Z,2.80
2024-05-09T02:07:50.316Z,2.80
2024-05-09T02:08:50.269Z,2.80
2024-05-09T02:09:50.260Z,2.70
2024-05-09T02:10:50.993Z,3.20
2024-05-09T02:11:50.319Z,3.10
2024-05-09T02:12:50.233Z,3.00
2024-05-09T02:13:50.268Z,3.00
2024-05-09T02:14:50.204Z,2.80
2024-05-09T02:15:50.219Z,3.20
2024-05-09T02:16:50.236Z,2.60
2024-05-09T02:17:50.620Z,2.90
2024-05-09T02:18:50.305Z,3.10
2024-05-09T02:19:50.226Z,3.10
2024-05-09T02:20:50.222Z,2.90
2024-05-09T02:21:50.140Z,2.70
2024-05-09T02:22:50.134Z,3.00
2024-05-09T02:23:50.137Z,3.00
2024-05-09T02:24:50.110Z,2.90
2024-05-09T02:25:50.131Z,3.10
2024-05-09T02:26:50.115Z,3.00
2024-05-09T02:27:50.082Z,2.80
2024-05-09T02:28:50.097Z,3.20
2024-05-09T02:29:50.044Z,3.40
2024-05-09T02:30:50.041Z,3.00
2024-05-09T02:31:50.144Z,3.00
2024-05-09T02:32:50.213Z,3.20
2024-05-09T02:33:50.483Z,3.20
2024-05-09T02:34:50.053Z,3.10
2024-05-09T02:35:50.019Z,2.80
2024-05-09T02:36:50.004Z,2.80
2024-05-09T02:37:50.008Z,2.80
2024-05-09T02:38:49.973Z,2.70
2024-05-09T02:39:49.932Z,2.90
2024-05-09T02:40:49.938Z,2.70
2024-05-09T02:41:49.926Z,2.80
2024-05-09T02:42:49.882Z,2.90
2024-05-09T02:43:49.881Z,3.10
2024-05-09T02:44:49.892Z,2.80
2024-05-09T02:45:49.859Z,2.60
2024-05-09T02:46:49.922Z,2.90
2024-05-09T02:47:50.022Z,3.10
2024-05-09T02:48:49.943Z,3.10
2024-05-09T02:49:49.860Z,3.00
2024-05-09T02:50:49.878Z,3.00
2024-05-09T02:51:49.821Z,2.90
2024-05-09T02:52:49.849Z,2.60
2024-05-09T02:53:49.779Z,2.70
2024-05-09T02:54:49.765Z,2.90
2024-05-09T02:55:49.762Z,2.80
2024-05-09T02:56:49.735Z,2.90
2024-05-09T02:57:49.885Z,2.90
2024-05-09T02:58:49.743Z,2.80
2024-05-09T02:59:49.696Z,2.70
2024-05-09T03:00:49.856Z,2.80
2024-05-09T03:01:49.802Z,2.80
2024-05-09T03:02:49.853Z,2.70
2024-05-09T03:03:49.950Z,2.70
2024-05-09T03:04:49.807Z,3.00
2024-05-09T03:05:49.677Z,2.80
2024-05-09T03:06:49.619Z,2.70
2024-05-09T03:07:49.658Z,2.50
2024-05-09T03:08:49.632Z,2.50
2024-05-09T03:09:49.592Z,2.70
2024-05-09T03:10:49.616Z,2.70
2024-05-09T03:11:49.691Z,2.80
2024-05-09T03:12:49.546Z,2.60
2024-05-09T03:13:49.603Z,2.50
2024-05-09T03:14:49.576Z,2.70
2024-05-09T03:15:49.551Z,2.70
2024-05-09T03:16:49.520Z,2.60
2024-05-09T03:17:49.704Z,3.00
2024-05-09T03:18:49.653Z,2.80
2024-05-09T03:19:49.506Z,3.00
2024-05-09T03:20:49.742Z,3.00
2024-05-09T03:21:49.451Z,2.60
2024-05-09T03:22:49.492Z,2.80
2024-05-09T03:23:49.493Z,2.60
2024-05-09T03:24:49.467Z,2.70
2024-05-09T03:25:49.473Z,2.60
2024-05-09T03:26:49.513Z,2.60
2024-05-09T03:27:49.383Z,2.80
2024-05-09T03:28:49.416Z,2.80
2024-05-09T03:29:49.504Z,2.30
2024-05-09T03:30:49.383Z,2.90
2024-05-09T03:31:49.473Z,2.50
2024-05-09T03:32:49.531Z,3.00
2024-05-09T03:33:49.453Z,2.90
2024-05-09T03:34:49.329Z,3.10
2024-05-09T03:35:56.329Z,2.60
2024-05-09T03:36:49.311Z,4.10
2024-05-09T03:37:49.367Z,2.90
2024-05-09T03:38:49.264Z,2.50
2024-05-09T03:39:49.269Z,2.80
2024-05-09T03:40:50.229Z,2.60
2024-05-09T03:41:49.245Z,2.70
2024-05-09T03:42:49.266Z,2.90
2024-05-09T03:43:49.246Z,3.10
2024-05-09T03:44:49.192Z,2.80
2024-05-09T03:45:49.203Z,3.10
2024-05-09T03:46:49.221Z,2.90
2024-05-09T03:47:49.607Z,2.50
2024-05-09T03:48:49.199Z,3.00
2024-05-09T03:49:49.222Z,2.90
2024-05-09T03:50:49.181Z,3.30
2024-05-09T03:51:49.115Z,2.70
2024-05-09T03:52:49.146Z,2.70
2024-05-09T03:53:49.127Z,2.80
2024-05-09T03:54:49.082Z,2.80
2024-05-09T03:55:49.149Z,3.10
2024-05-09T03:56:49.075Z,2.90
2024-05-09T03:57:49.051Z,3.30
2024-05-09T03:58:49.094Z,3.00
2024-05-09T03:59:49.051Z,2.80
2024-05-09T04:00:49.080Z,3.30
2024-05-09T04:01:49.143Z,3.30
2024-05-09T04:02:49.063Z,3.00
2024-05-09T04:03:49.324Z,3.40
2024-05-09T04:04:49.124Z,3.30
2024-05-09T04:05:49.016Z,3.20
2024-05-09T04:06:48.987Z,3.00
2024-05-09T04:07:48.985Z,2.80
2024-05-09T04:08:48.977Z,3.10
2024-05-09T04:09:48.920Z,3.00
2024-05-09T04:10:48.955Z,3.40
2024-05-09T04:11:49.101Z,2.90
2024-05-09T04:12:48.929Z,3.20
2024-05-09T04:13:48.944Z,3.50
2024-05-09T04:14:48.874Z,3.40
2024-05-09T04:15:48.844Z,3.20
2024-05-09T04:16:48.968Z,3.40
2024-05-09T04:17:49.266Z,2.90
2024-05-09T04:18:49.270Z,3.30
2024-05-09T04:19:48.962Z,3.10
2024-05-09T04:20:48.854Z,3.20
2024-05-09T04:21:48.808Z,3.10
2024-05-09T04:22:48.835Z,2.90
2024-05-09T04:23:48.829Z,3.20
2024-05-09T04:24:48.742Z,3.20
2024-05-09T04:25:48.780Z,3.30
2024-05-09T04:26:48.785Z,3.10
2024-05-09T04:27:48.714Z,3.40
2024-05-09T04:28:48.772Z,3.30
2024-05-09T04:29:48.690Z,2.90
2024-05-09T04:30:48.692Z,3.70
2024-05-09T04:31:48.802Z,3.30
2024-05-09T04:32:48.822Z,3.20
2024-05-09T04:33:48.751Z,3.20
2024-05-09T04:34:48.680Z,3.00
2024-05-09T04:35:48.628Z,2.80
2024-05-09T04:36:48.675Z,3.00
2024-05-09T04:37:48.629Z,3.00
2024-05-09T04:38:48.593Z,3.30
2024-05-09T04:39:48.601Z,3.20
2024-05-09T04:40:48.628Z,3.10
2024-05-09T04:41:48.562Z,2.80
2024-05-09T04:42:48.587Z,2.80
2024-05-09T04:43:48.599Z,3.20
2024-05-09T04:44:48.540Z,3.30
2024-05-09T04:45:48.540Z,3.20
2024-05-09T04:46:48.531Z,3.20
2024-05-09T04:47:48.765Z,3.00
2024-05-09T04:48:48.652Z,2.80
2024-05-09T04:49:48.525Z,2.90
2024-05-09T04:50:48.484Z,3.00
2024-05-09T04:51:48.556Z,3.20
2024-05-09T04:52:48.517Z,3.30
2024-05-09T04:53:48.527Z,3.00
2024-05-09T04:54:48.420Z,3.40
2024-05-09T04:55:48.480Z,3.20
2024-05-09T04:56:48.398Z,4.30
2024-05-09T04:57:48.411Z,3.20
2024-05-09T04:58:48.442Z,3.70
2024-05-09T04:59:48.354Z,3.40
2024-05-09T05:00:48.422Z,3.20
2024-05-09T05:01:48.493Z,3.30
2024-05-09T05:02:48.438Z,3.30
2024-05-09T05:03:48.484Z,3.30
2024-05-09T05:04:48.399Z,3.50
2024-05-09T05:05:48.327Z,3.30
2024-05-09T05:06:48.280Z,3.80
2024-05-09T05:07:48.308Z,3.60
2024-05-09T05:08:48.295Z,3.50
2024-05-09T05:09:48.247Z,3.50
2024-05-09T05:10:49.242Z,3.80
2024-05-09T05:11:48.302Z,3.40
2024-05-09T05:12:48.253Z,3.30
2024-05-09T05:13:48.350Z,3.40
2024-05-09T05:14:48.233Z,3.50
2024-05-09T05:15:48.180Z,3.60
2024-05-09T05:16:48.214Z,3.60
2024-05-09T05:17:48.301Z,3.80
2024-05-09T05:18:48.248Z,3.90
2024-05-09T05:19:48.382Z,3.60
2024-05-09T05:20:48.237Z,3.70
2024-05-09T05:21:48.103Z,3.40
2024-05-09T05:22:48.191Z,4.10
2024-05-09T05:23:48.169Z,3.60
2024-05-09T05:24:48.085Z,3.20
2024-05-09T05:25:48.447Z,3.20
2024-05-09T05:26:48.134Z,3.40
2024-05-09T05:27:48.104Z,3.50
2024-05-09T05:28:48.304Z,3.50
2024-05-09T05:29:48.076Z,3.20
2024-05-09T05:30:48.014Z,3.30
2024-05-09T05:31:48.031Z,3.30
2024-05-09T05:32:48.215Z,3.50
2024-05-09T05:33:48.098Z,3.50
2024-05-09T05:34:48.009Z,3.20
2024-05-09T05:35:48.161Z,3.30
2024-05-09T05:36:47.939Z,3.70
2024-05-09T05:37:47.966Z,3.40
2024-05-09T05:38:48.006Z,3.90
2024-05-09T05:39:47.915Z,3.80
2024-05-09T05:40:47.930Z,3.60
2024-05-09T05:41:47.893Z,3.50
2024-05-09T05:42:47.918Z,3.60
2024-05-09T05:43:47.911Z,3.20
2024-05-09T05:44:47.964Z,3.70
2024-05-09T05:45:47.838Z,3.50
2024-05-09T05:46:47.864Z,3.60
2024-05-09T05:47:48.140Z,3.70
2024-05-09T05:48:48.093Z,4.10
2024-05-09T05:49:47.820Z,3.80
2024-05-09T05:50:47.884Z,3.70
2024-05-09T05:51:47.786Z,3.70
2024-05-09T05:52:47.794Z,3.60
2024-05-09T05:53:47.814Z,3.90
2024-05-09T05:54:47.839Z,3.80
2024-05-09T05:55:47.757Z,3.60
2024-05-09T05:56:47.730Z,3.80
2024-05-09T05:57:47.716Z,3.50
2024-05-09T05:58:47.762Z,3.80
2024-05-09T05:59:47.745Z,4.10
2024-05-09T06:00:47.755Z,4.20
2024-05-09T06:01:47.685Z,3.90
2024-05-09T06:02:47.791Z,4.00
2024-05-09T06:03:47.834Z,3.80
2024-05-09T06:04:47.773Z,4.00
2024-05-09T06:05:47.641Z,3.80
2024-05-09T06:06:47.634Z,4.30
2024-05-09T06:07:47.635Z,3.40
2024-05-09T06:08:47.833Z,4.00
2024-05-09T06:09:49.975Z,4.10
2024-05-09T06:10:47.716Z,4.00
2024-05-09T06:11:47.616Z,3.90
2024-05-09T06:12:47.527Z,3.70
2024-05-09T06:13:47.699Z,4.10
2024-05-09T06:14:47.615Z,4.10
2024-05-09T06:15:47.517Z,4.10
2024-05-09T06:16:47.640Z,4.00
2024-05-09T06:17:47.634Z,3.80
2024-05-09T06:18:47.760Z,3.70
2024-05-09T06:19:47.717Z,3.80
2024-05-09T06:20:47.703Z,4.00
2024-05-09T06:21:47.438Z,4.20
2024-05-09T06:22:47.499Z,3.80
2024-05-09T06:23:47.479Z,4.20
2024-05-09T06:24:47.414Z,3.80
2024-05-09T06:25:47.462Z,3.70
2024-05-09T06:26:47.468Z,3.50
2024-05-09T06:27:47.364Z,3.70
2024-05-09T06:28:47.541Z,3.90
2024-05-09T06:29:47.344Z,3.70
2024-05-09T06:30:47.362Z,3.90
2024-05-09T06:31:47.353Z,4.10
2024-05-09T06:32:47.380Z,3.60
2024-05-09T06:33:47.400Z,3.40
2024-05-09T06:34:47.450Z,3.90
2024-05-09T06:35:47.393Z,3.60
2024-05-09T06:36:47.265Z,3.70
2024-05-09T06:37:47.269Z,3.70
2024-05-09T06:38:47.334Z,4.10
2024-05-09T06:39:47.251Z,3.80
2024-05-09T06:40:47.260Z,4.10
2024-05-09T06:41:47.197Z,3.70
2024-05-09T06:42:47.248Z,3.80
2024-05-09T06:43:47.224Z,4.10
2024-05-09T06:44:47.171Z,3.80
2024-05-09T06:45:47.715Z,3.70
2024-05-09T06:46:47.217Z,3.70
2024-05-09T06:47:47.317Z,3.90
2024-05-09T06:48:47.278Z,4.20
2024-05-09T06:49:47.207Z,3.70
2024-05-09T06:50:47.202Z,3.40
2024-05-09T06:51:47.098Z,3.50
2024-05-09T06:52:47.410Z,3.80
2024-05-09T06:53:47.179Z,3.60
2024-05-09T06:54:47.052Z,4.00
2024-05-09T06:55:47.079Z,3.30
2024-05-09T06:56:47.052Z,3.20
2024-05-09T06:57:47.021Z,3.70
2024-05-09T06:58:47.159Z,3.50
2024-05-09T06:59:47.008Z,3.60
2024-05-09T07:00:47.113Z,3.40
2024-05-09T07:01:47.003Z,3.80
2024-05-09T07:02:47.016Z,3.60
2024-05-09T07:03:47.285Z,3.70
2024-05-09T07:04:47.159Z,3.50
2024-05-09T07:05:48.003Z,4.10
2024-05-09T07:06:46.947Z,3.70
2024-05-09T07:07:47.070Z,3.60
2024-05-09T07:08:48.744Z,4.30
2024-05-09T07:09:46.890Z,3.80
2024-05-09T07:10:48.001Z,4.30
2024-05-09T07:11:46.924Z,4.00
2024-05-09T07:12:46.859Z,3.90
2024-05-09T07:13:46.870Z,3.50
2024-05-09T07:14:46.893Z,3.50
2024-05-09T07:15:46.907Z,3.30
2024-05-09T07:16:47.040Z,3.70
2024-05-09T07:17:46.971Z,3.90
2024-05-09T07:18:46.973Z,3.60
2024-05-09T07:19:46.955Z,3.80
2024-05-09T07:20:47.561Z,3.70
2024-05-09T07:21:46.755Z,3.30
2024-05-09T07:22:46.872Z,3.70
2024-05-09T07:23:47.541Z,3.50
2024-05-09T07:24:46.790Z,3.60
2024-05-09T07:25:46.946Z,3.60
2024-05-09T07:26:46.752Z,3.50
2024-05-09T07:27:46.686Z,11.10
2024-05-09T07:28:46.856Z,5.10
2024-05-09T07:29:46.703Z,8.60
2024-05-09T07:30:46.730Z,4.20
2024-05-09T07:31:46.711Z,6.40
2024-05-09T07:32:46.896Z,3.30
2024-05-09T07:33:46.810Z,3.40
2024-05-09T07:34:46.674Z,3.20
2024-05-09T07:35:46.679Z,3.10
2024-05-09T07:36:46.707Z,4.70
2024-05-09T07:37:46.599Z,3.00
2024-05-09T07:38:46.581Z,5.80
2024-05-09T07:39:46.612Z,3.50
2024-05-09T07:40:46.903Z,5.40
2024-05-09T07:41:46.643Z,5.10
2024-05-09T07:42:46.567Z,5.30
2024-05-09T07:43:46.580Z,4.00
2024-05-09T07:44:46.535Z,4.00
2024-05-09T07:45:52.215Z,3.10
2024-05-09T07:47:48.606Z,2.80
2024-05-09T07:49:12.751Z,2.20
2024-05-09T07:53:16.989Z,2.90
2024-05-09T07:53:34.655Z,3.70
2024-05-09T07:53:50.975Z,2.80
2024-05-09T07:54:47.634Z,2.90
2024-05-09T07:55:49.750Z,4.10
2024-05-09T07:56:46.787Z,8.30
2024-05-09T07:57:46.393Z,4.90
2024-05-09T07:58:46.328Z,2.20
2024-05-09T07:59:46.326Z,2.60
2024-05-09T08:00:46.925Z,2.20
2024-05-09T08:01:46.461Z,3.10
2024-05-09T08:02:46.323Z,2.10
2024-05-09T08:03:46.557Z,3.70
2024-05-09T08:04:46.430Z,3.80
2024-05-09T08:05:46.283Z,3.10
2024-05-09T08:06:46.334Z,3.20
2024-05-09T08:07:46.328Z,2.50
2024-05-09T08:08:46.297Z,2.40
2024-05-09T08:09:46.267Z,2.30
2024-05-09T08:10:46.445Z,2.60
2024-05-09T08:11:46.485Z,2.10
2024-05-09T08:12:46.217Z,4.30
2024-05-09T08:13:46.157Z,2.30
2024-05-09T08:14:46.157Z,2.30
2024-05-09T08:15:46.311Z,2.60
2024-05-09T08:16:46.245Z,2.50
2024-05-09T08:17:46.174Z,2.60
2024-05-09T08:18:46.170Z,2.60
2024-05-09T08:19:46.175Z,2.60
2024-05-09T08:20:46.080Z,2.10
2024-05-09T08:21:46.145Z,2.50
2024-05-09T08:22:46.060Z,2.50
2024-05-09T08:23:46.076Z,2.40
2024-05-09T08:24:46.078Z,2.30
2024-05-09T08:25:46.081Z,2.30
2024-05-09T08:26:46.118Z,2.30
2024-05-09T08:27:46.023Z,2.30
2024-05-09T08:28:46.019Z,2.10
2024-05-09T08:29:46.096Z,2.30
2024-05-09T08:30:46.130Z,2.10
2024-05-09T08:31:46.835Z,2.30
2024-05-09T08:32:45.994Z,2.30
2024-05-09T08:33:46.150Z,2.50
2024-05-09T08:34:45.977Z,2.30
2024-05-09T08:35:45.911Z,2.30
2024-05-09T08:36:46.080Z,2.30
2024-05-09T08:37:45.995Z,2.30
2024-05-09T08:38:45.888Z,2.40
2024-05-09T08:39:45.870Z,2.10
2024-05-09T08:40:46.325Z,2.20
2024-05-09T08:41:45.867Z,2.50
2024-05-09T08:42:45.880Z,2.40
2024-05-09T08:43:45.829Z,2.30
2024-05-09T08:44:45.821Z,2.40
2024-05-09T08:45:45.968Z,2.40
2024-05-09T08:46:45.878Z,2.60
2024-05-09T08:47:45.873Z,2.90
2024-05-09T08:48:46.073Z,2.50
2024-05-09T08:49:45.836Z,2.70
2024-05-09T08:50:46.137Z,2.30
2024-05-09T08:51:45.785Z,2.00
2024-05-09T08:52:45.797Z,2.00
2024-05-09T08:53:45.833Z,2.40
2024-05-09T08:54:45.781Z,2.20
2024-05-09T08:55:45.794Z,2.30
2024-05-09T08:56:45.676Z,2.10
2024-05-09T08:57:45.712Z,2.20
2024-05-09T08:58:45.691Z,2.40
2024-05-09T08:59:45.754Z,2.20
2024-05-09T09:00:46.309Z,2.40
2024-05-09T09:01:45.716Z,2.30
2024-05-09T09:02:45.824Z,2.10
2024-05-09T09:03:45.898Z,2.30
2024-05-09T09:04:45.852Z,2.30
2024-05-09T09:05:45.681Z,2.20
2024-05-09T09:06:47.155Z,2.30
2024-05-09T09:07:46.398Z,2.20
2024-05-09T09:08:45.545Z,2.30
2024-05-09T09:09:45.586Z,2.30
2024-05-09T09:10:45.666Z,2.10
2024-05-09T09:11:45.638Z,2.20
2024-05-09T09:12:45.562Z,2.20
2024-05-09T09:13:45.558Z,2.20
2024-05-09T09:14:45.468Z,2.40
2024-05-09T09:15:45.523Z,2.30
2024-05-09T09:16:45.469Z,2.40
2024-05-09T09:17:45.541Z,2.30
2024-05-09T09:18:45.584Z,2.30
2024-05-09T09:19:45.474Z,2.30
2024-05-09T09:20:45.626Z,2.20
2024-05-09T09:21:45.433Z,2.40
2024-05-09T09:22:45.410Z,2.10
2024-05-09T09:23:45.385Z,2.50
2024-05-09T09:24:45.389Z,2.40
2024-05-09T09:25:45.366Z,2.20
2024-05-09T09:26:45.366Z,2.30
2024-05-09T09:27:45.466Z,2.40
2024-05-09T09:28:45.333Z,2.40
2024-05-09T09:29:45.320Z,2.20
2024-05-09T09:30:45.354Z,2.20
2024-05-09T09:31:45.286Z,2.20
2024-05-09T09:32:45.445Z,2.20
2024-05-09T09:33:45.500Z,2.10
2024-05-09T09:34:45.350Z,2.20
2024-05-09T09:35:45.258Z,2.30
2024-05-09T09:36:52.939Z,2.20
2024-05-09T09:37:45.254Z,3.40
2024-05-09T09:38:45.219Z,2.20
2024-05-09T09:39:49.040Z,2.30
2024-05-09T09:40:49.096Z,2.30
2024-05-09T09:41:45.286Z,2.40
2024-05-09T09:42:45.204Z,2.20
2024-05-09T09:43:45.190Z,2.70
2024-05-09T09:44:54.459Z,2.40
2024-05-09T09:45:46.138Z,2.30
2024-05-09T09:46:45.144Z,2.20
2024-05-09T09:47:45.310Z,2.20
2024-05-09T09:48:45.341Z,2.20
2024-05-09T09:49:45.245Z,2.20
2024-05-09T09:50:45.077Z,2.40
2024-05-09T09:51:45.114Z,2.20
2024-05-09T09:52:45.060Z,2.10
2024-05-09T09:53:45.052Z,2.30
2024-05-09T09:54:45.117Z,2.40
2024-05-09T09:55:45.010Z,2.30
2024-05-09T09:56:45.003Z,2.40
2024-05-09T09:57:45.025Z,2.10
2024-05-09T09:58:45.008Z,2.20
2024-05-09T09:59:45.022Z,2.10
2024-05-09T10:00:45.371Z,2.10
2024-05-09T10:01:45.171Z,2.30
2024-05-09T10:02:44.944Z,2.20
2024-05-09T10:03:45.151Z,2.20
2024-05-09T10:04:45.037Z,2.20
2024-05-09T10:05:47.081Z,2.10
2024-05-09T10:06:44.908Z,2.30
2024-05-09T10:07:44.876Z,2.20
2024-05-09T10:08:44.880Z,2.20
2024-05-09T10:09:44.921Z,2.30
2024-05-09T10:10:45.003Z,2.40
2024-05-09T10:11:49.252Z,2.30
2024-05-09T10:12:45.864Z,2.20
2024-05-09T10:13:44.828Z,2.20
2024-05-09T10:14:44.847Z,2.20
2024-05-09T10:15:45.047Z,2.30
2024-05-09T10:16:44.842Z,2.50
2024-05-09T10:17:44.902Z,2.00
2024-05-09T10:18:44.946Z,2.30
2024-05-09T10:19:44.854Z,2.40
2024-05-09T10:20:44.901Z,2.20
2024-05-09T10:21:44.799Z,2.10
2024-05-09T10:22:44.713Z,2.30
2024-05-09T10:23:44.700Z,2.50
2024-05-09T10:24:44.735Z,2.20
2024-05-09T10:25:44.693Z,2.30
2024-05-09T10:26:44.703Z,2.20
2024-05-09T10:27:44.727Z,2.40
2024-05-09T10:28:44.649Z,2.10
2024-05-09T10:29:44.625Z,2.30
2024-05-09T10:30:46.581Z,2.30
2024-05-09T10:31:44.736Z,2.20
2024-05-09T10:32:44.747Z,2.20
2024-05-09T10:33:44.757Z,2.20
2024-05-09T10:34:44.747Z,2.10
2024-05-09T10:35:44.700Z,2.30
2024-05-09T10:36:44.690Z,2.20
2024-05-09T10:37:44.542Z,2.40
2024-05-09T10:38:44.537Z,2.20
2024-05-09T10:39:44.554Z,2.30
2024-05-09T10:40:44.672Z,2.20
2024-05-09T10:41:44.518Z,2.20
2024-05-09T10:42:44.556Z,2.00
2024-05-09T10:43:44.477Z,2.50
2024-05-09T10:44:44.493Z,2.20
2024-05-09T10:45:44.534Z,2.00
2024-05-09T10:46:44.471Z,2.20
2024-05-09T10:47:44.533Z,2.00
2024-05-09T10:48:44.925Z,2.10
2024-05-09T10:49:44.480Z,2.40
2024-05-09T10:50:44.393Z,2.00
2024-05-09T10:51:44.588Z,2.30
2024-05-09T10:52:44.392Z,2.00
2024-05-09T10:53:44.419Z,2.20
2024-05-09T10:54:44.409Z,2.10
2024-05-09T10:55:44.399Z,2.30
2024-05-09T10:56:44.360Z,3.90
2024-05-09T10:57:44.369Z,1.90
2024-05-09T10:58:44.318Z,2.20
2024-05-09T10:59:44.320Z,2.10
2024-05-09T11:00:44.407Z,2.20
2024-05-09T11:01:44.688Z,2.10
2024-05-09T11:02:44.453Z,2.00
2024-05-09T11:03:44.416Z,2.00
2024-05-09T11:04:44.470Z,2.10
2024-05-09T11:05:44.424Z,2.30
2024-05-09T11:06:44.281Z,2.30
2024-05-09T11:07:44.196Z,2.20
2024-05-09T11:08:44.212Z,2.00
2024-05-09T11:09:44.227Z,2.00
2024-05-09T11:10:44.405Z,2.00
2024-05-09T11:11:44.200Z,2.50
2024-05-09T11:12:44.179Z,1.90
2024-05-09T11:13:44.164Z,1.90
2024-05-09T11:14:44.141Z,2.20
2024-05-09T11:15:44.180Z,1.90
2024-05-09T11:16:44.135Z,2.00
2024-05-09T11:17:44.295Z,2.00
2024-05-09T11:18:44.368Z,2.10
2024-05-09T11:19:44.140Z,2.20
2024-05-09T11:20:44.241Z,2.10
2024-05-09T11:21:44.092Z,2.30
2024-05-09T11:22:44.074Z,2.40
2024-05-09T11:23:44.028Z,2.60
2024-05-09T11:24:44.062Z,2.10
2024-05-09T11:25:44.080Z,2.50
2024-05-09T11:26:44.036Z,2.30
2024-05-09T11:27:44.046Z,2.10
2024-05-09T11:28:43.972Z,2.10
2024-05-09T11:29:43.977Z,2.20
2024-05-09T11:30:43.978Z,2.20
2024-05-09T11:31:44.024Z,2.20
2024-05-09T11:32:44.069Z,2.20
2024-05-09T11:33:44.215Z,2.10
2024-05-09T11:34:43.959Z,2.30
2024-05-09T11:35:43.946Z,2.40
2024-05-09T11:36:43.942Z,2.10
2024-05-09T11:37:43.898Z,2.20
2024-05-09T11:38:43.887Z,2.20
2024-05-09T11:39:43.900Z,2.10
2024-05-09T11:40:43.980Z,2.30
2024-05-09T11:41:43.843Z,2.10
2024-05-09T11:42:43.853Z,2.00
2024-05-09T11:43:43.832Z,2.40
2024-05-09T11:44:43.805Z,2.10
2024-05-09T11:45:43.801Z,2.20
2024-05-09T11:46:43.773Z,2.20
2024-05-09T11:47:43.882Z,2.00
2024-05-09T11:48:43.944Z,2.50
2024-05-09T11:49:43.764Z,2.50
2024-05-09T11:50:43.785Z,2.20
2024-05-09T11:51:43.782Z,2.30
2024-05-09T11:52:43.712Z,2.30
2024-05-09T11:53:43.713Z,2.00
2024-05-09T11:54:43.715Z,2.00
2024-05-09T11:55:43.660Z,2.00
2024-05-09T11:56:43.732Z,2.20
2024-05-09T11:57:43.670Z,2.20
2024-05-09T11:58:43.692Z,2.20
2024-05-09T11:59:43.628Z,2.00
2024-05-09T12:00:43.819Z,2.20
2024-05-09T12:01:43.849Z,2.20
2024-05-09T12:02:43.647Z,2.00
2024-05-09T12:03:43.787Z,2.30
2024-05-09T12:04:43.728Z,2.20
2024-05-09T12:05:43.720Z,1.80
2024-05-09T12:06:43.561Z,2.20
2024-05-09T12:07:43.547Z,2.10
2024-05-09T12:08:43.649Z,2.40
2024-05-09T12:09:43.631Z,2.10
2024-05-09T12:10:43.642Z,2.00
2024-05-09T12:11:43.555Z,2.20
2024-05-09T12:12:43.566Z,2.10
2024-05-09T12:13:43.521Z,2.40
2024-05-09T12:14:43.496Z,1.90
2024-05-09T12:15:43.504Z,2.00
2024-05-09T12:16:43.571Z,2.20
2024-05-09T12:17:44.159Z,2.00
2024-05-09T12:18:43.537Z,2.10
2024-05-09T12:19:43.499Z,2.00
2024-05-09T12:20:43.455Z,2.70
2024-05-09T12:21:43.466Z,2.10
2024-05-09T12:22:43.498Z,1.90
2024-05-09T12:23:43.364Z,2.00
2024-05-09T12:24:43.389Z,2.30
2024-05-09T12:25:43.368Z,1.80
2024-05-09T12:26:43.333Z,2.10
2024-05-09T12:27:43.350Z,2.00
2024-05-09T12:28:43.353Z,2.10
2024-05-09T12:29:43.295Z,2.10
2024-05-09T12:30:43.352Z,2.40
2024-05-09T12:31:43.272Z,1.90
2024-05-09T12:32:43.430Z,2.00
2024-05-09T12:33:43.302Z,2.00
2024-05-09T12:34:43.369Z,2.60
2024-05-09T12:35:45.717Z,2.20
2024-05-09T12:36:43.330Z,2.20
2024-05-09T12:37:43.210Z,2.00
2024-05-09T12:38:43.197Z,2.20
2024-05-09T12:39:43.252Z,2.50
2024-05-09T12:40:43.582Z,2.00
2024-05-09T12:41:43.194Z,2.20
2024-05-09T12:42:43.188Z,2.20
2024-05-09T12:43:43.150Z,2.10
2024-05-09T12:44:43.224Z,2.20
2024-05-09T12:45:43.199Z,2.50
2024-05-09T12:46:43.090Z,2.10
2024-05-09T12:47:43.234Z,2.10
2024-05-09T12:48:43.324Z,2.20
2024-05-09T12:49:43.139Z,2.20
2024-05-09T12:50:43.280Z,2.00
2024-05-09T12:51:43.082Z,2.60
2024-05-09T12:52:43.041Z,2.30
2024-05-09T12:53:43.046Z,2.30
2024-05-09T12:54:43.091Z,2.10
2024-05-09T12:55:49.007Z,2.10
2024-05-09T12:56:44.005Z,2.10
2024-05-09T12:57:43.014Z,2.10
2024-05-09T12:58:42.976Z,2.30
2024-05-09T12:59:42.960Z,2.20
2024-05-09T13:00:43.133Z,2.10
2024-05-09T13:01:43.114Z,1.90
2024-05-09T13:02:42.979Z,2.10
2024-05-09T13:03:43.033Z,1.90
2024-05-09T13:04:43.042Z,2.40
2024-05-09T13:05:43.171Z,2.00
2024-05-09T13:06:42.957Z,2.30
2024-05-09T13:07:42.886Z,2.10
2024-05-09T13:08:42.865Z,2.20
2024-05-09T13:09:42.921Z,2.10
2024-05-09T13:10:43.055Z,1.90
2024-05-09T13:11:43.039Z,1.90
2024-05-09T13:12:42.975Z,1.90
2024-05-09T13:13:42.809Z,1.80
2024-05-09T13:14:42.801Z,2.00
2024-05-09T13:15:42.867Z,2.20
2024-05-09T13:16:42.843Z,2.20
2024-05-09T13:17:42.937Z,2.00
2024-05-09T13:18:42.840Z,2.20
2024-05-09T13:19:42.800Z,2.10
2024-05-09T13:20:42.736Z,2.10
2024-05-09T13:21:42.734Z,2.40